sensor_id;sensor_type;location;lat;lon;timestamp;temperature;humidity
26254;DHT22;53339;51.378;0.094;2023-05-10T00:00:32;11.00;90.20
26254;DHT22;53339;51.378;0.094;2023-05-10T00:03:04;11.00;90.20
26254;DHT22;53339;51.378;0.094;2023-05-10T00:06:01;11.00;90.20
26254;DHT22;53339;51.378;0.094;2023-05-10T00:08:39;11.00;90.30
26254;DHT22;53339;51.378;0.094;2023-05-10T00:11:49;10.90;90.30
26254;DHT22;53339;51.378;0.094;2023-05-10T00:14:56;10.90;90.30
26254;DHT22;53339;51.378;0.094;2023-05-10T00:17:48;10.90;90.40
26254;DHT22;53339;51.378;0.094;2023-05-10T00:20:27;10.90;90.50
26254;DHT22;53339;51.378;0.094;2023-05-10T00:23:20;10.90;90.50
26254;DHT22;53339;51.378;0.094;2023-05-10T00:26:15;11.00;90.60
26254;DHT22;53339;51.378;0.094;2023-05-10T00:28:57;11.00;90.60
26254;DHT22;53339;51.378;0.094;2023-05-10T00:31:36;11.00;90.60
26254;DHT22;53339;51.378;0.094;2023-05-10T00:34:12;11.00;90.60
26254;DHT22;53339;51.378;0.094;2023-05-10T00:37:22;11.00;90.60
26254;DHT22;53339;51.378;0.094;2023-05-10T00:40:05;11.00;90.60
26254;DHT22;53339;51.378;0.094;2023-05-10T00:42:44;11.00;90.60
26254;DHT22;53339;51.378;0.094;2023-05-10T00:45:29;11.00;90.60
26254;DHT22;53339;51.378;0.094;2023-05-10T00:48:17;11.00;90.60
26254;DHT22;53339;51.378;0.094;2023-05-10T00:51:11;11.00;90.60
26254;DHT22;53339;51.378;0.094;2023-05-10T00:53:48;11.00;90.60
26254;DHT22;53339;51.378;0.094;2023-05-10T00:56:42;11.00;90.70
26254;DHT22;53339;51.378;0.094;2023-05-10T00:59:38;11.00;90.70
26254;DHT22;53339;51.378;0.094;2023-05-10T01:02:25;11.00;90.80
26254;DHT22;53339;51.378;0.094;2023-05-10T01:05:11;11.00;90.80
26254;DHT22;53339;51.378;0.094;2023-05-10T01:07:59;11.10;90.80
26254;DHT22;53339;51.378;0.094;2023-05-10T01:10:52;11.00;90.80
26254;DHT22;53339;51.378;0.094;2023-05-10T01:13:44;11.10;90.90
26254;DHT22;53339;51.378;0.094;2023-05-10T01:16:59;11.10;90.90
26254;DHT22;53339;51.378;0.094;2023-05-10T01:19:38;11.20;90.90
26254;DHT22;53339;51.378;0.094;2023-05-10T01:32:10;11.30;91.00
26254;DHT22;53339;51.378;0.094;2023-05-10T01:35:22;11.40;91.00
26254;DHT22;53339;51.378;0.094;2023-05-10T01:38:45;11.40;91.10
26254;DHT22;53339;51.378;0.094;2023-05-10T01:42:08;11.40;91.10
26254;DHT22;53339;51.378;0.094;2023-05-10T01:48:48;11.50;91.00
26254;DHT22;53339;51.378;0.094;2023-05-10T01:51:35;11.50;91.00
26254;DHT22;53339;51.378;0.094;2023-05-10T01:54:43;11.50;91.00
26254;DHT22;53339;51.378;0.094;2023-05-10T01:57:43;11.50;91.00
26254;DHT22;53339;51.378;0.094;2023-05-10T02:00:34;11.50;91.00
26254;DHT22;53339;51.378;0.094;2023-05-10T02:03:46;11.50;91.00
26254;DHT22;53339;51.378;0.094;2023-05-10T02:06:22;11.50;91.10
26254;DHT22;53339;51.378;0.094;2023-05-10T02:09:16;11.50;91.00
26254;DHT22;53339;51.378;0.094;2023-05-10T02:12:21;11.50;91.00
26254;DHT22;53339;51.378;0.094;2023-05-10T02:15:15;11.50;91.00
26254;DHT22;53339;51.378;0.094;2023-05-10T02:18:11;11.50;91.00
26254;DHT22;53339;51.378;0.094;2023-05-10T02:20:49;11.50;91.00
26254;DHT22;53339;51.378;0.094;2023-05-10T02:23:25;11.50;91.00
26254;DHT22;53339;51.378;0.094;2023-05-10T02:26:06;11.40;90.90
26254;DHT22;53339;51.378;0.094;2023-05-10T02:29:04;11.40;90.90
26254;DHT22;53339;51.378;0.094;2023-05-10T02:31:45;11.40;90.90
26254;DHT22;53339;51.378;0.094;2023-05-10T02:34:31;11.40;90.90
26254;DHT22;53339;51.378;0.094;2023-05-10T02:37:13;11.40;90.90
26254;DHT22;53339;51.378;0.094;2023-05-10T02:40:19;11.40;90.90
26254;DHT22;53339;51.378;0.094;2023-05-10T02:43:22;11.40;90.90
26254;DHT22;53339;51.378;0.094;2023-05-10T02:46:28;11.30;90.90
26254;DHT22;53339;51.378;0.094;2023-05-10T02:49:37;11.30;90.90
26254;DHT22;53339;51.378;0.094;2023-05-10T02:52:21;11.30;90.90
26254;DHT22;53339;51.378;0.094;2023-05-10T02:55:02;11.30;90.90
26254;DHT22;53339;51.378;0.094;2023-05-10T02:58:12;11.20;91.00
26254;DHT22;53339;51.378;0.094;2023-05-10T03:01:24;11.20;91.00
26254;DHT22;53339;51.378;0.094;2023-05-10T03:04:07;11.20;91.00
26254;DHT22;53339;51.378;0.094;2023-05-10T03:07:01;11.20;91.00
26254;DHT22;53339;51.378;0.094;2023-05-10T03:09:53;11.30;91.00
26254;DHT22;53339;51.378;0.094;2023-05-10T03:12:57;11.20;91.00
26254;DHT22;53339;51.378;0.094;2023-05-10T03:16:06;11.20;91.00
26254;DHT22;53339;51.378;0.094;2023-05-10T03:22:45;11.20;91.10
26254;DHT22;53339;51.378;0.094;2023-05-10T03:25:42;11.20;91.10
26254;DHT22;53339;51.378;0.094;2023-05-10T03:28:23;11.20;91.10
26254;DHT22;53339;51.378;0.094;2023-05-10T03:31:15;11.20;91.10
26254;DHT22;53339;51.378;0.094;2023-05-10T03:34:04;11.20;91.10
26254;DHT22;53339;51.378;0.094;2023-05-10T03:36:49;11.20;91.10
26254;DHT22;53339;51.378;0.094;2023-05-10T03:39:23;11.20;91.10
26254;DHT22;53339;51.378;0.094;2023-05-10T03:42:00;11.20;91.10
26254;DHT22;53339;51.378;0.094;2023-05-10T03:44:55;11.20;91.10
26254;DHT22;53339;51.378;0.094;2023-05-10T03:48:06;11.20;91.10
26254;DHT22;53339;51.378;0.094;2023-05-10T03:51:07;11.20;91.10
26254;DHT22;53339;51.378;0.094;2023-05-10T03:53:45;11.10;91.10
26254;DHT22;53339;51.378;0.094;2023-05-10T03:56:45;11.10;91.10
26254;DHT22;53339;51.378;0.094;2023-05-10T03:59:26;11.10;91.10
26254;DHT22;53339;51.378;0.094;2023-05-10T04:02:11;11.10;91.10
26254;DHT22;53339;51.378;0.094;2023-05-10T04:05:00;11.10;91.10
26254;DHT22;53339;51.378;0.094;2023-05-10T04:07:46;11.10;91.10
26254;DHT22;53339;51.378;0.094;2023-05-10T04:10:37;11.10;91.10
26254;DHT22;53339;51.378;0.094;2023-05-10T04:13:31;11.00;91.10
26254;DHT22;53339;51.378;0.094;2023-05-10T04:16:16;11.00;91.20
26254;DHT22;53339;51.378;0.094;2023-05-10T04:18:55;11.00;91.20
26254;DHT22;53339;51.378;0.094;2023-05-10T04:21:31;11.00;91.20
26254;DHT22;53339;51.378;0.094;2023-05-10T04:24:15;11.00;91.20
26254;DHT22;53339;51.378;0.094;2023-05-10T04:27:06;11.00;91.20
26254;DHT22;53339;51.378;0.094;2023-05-10T04:30:11;11.00;91.20
26254;DHT22;53339;51.378;0.094;2023-05-10T04:32:59;10.90;91.20
26254;DHT22;53339;51.378;0.094;2023-05-10T04:36:00;10.90;91.20
26254;DHT22;53339;51.378;0.094;2023-05-10T04:38:42;10.90;91.10
26254;DHT22;53339;51.378;0.094;2023-05-10T04:41:15;10.90;91.20
26254;DHT22;53339;51.378;0.094;2023-05-10T04:44:01;10.80;91.20
26254;DHT22;53339;51.378;0.094;2023-05-10T04:46:35;10.80;91.20
26254;DHT22;53339;51.378;0.094;2023-05-10T04:49:30;10.80;91.20
26254;DHT22;53339;51.378;0.094;2023-05-10T04:52:09;10.70;91.10
26254;DHT22;53339;51.378;0.094;2023-05-10T04:55:00;10.70;91.10
26254;DHT22;53339;51.378;0.094;2023-05-10T04:57:34;10.70;91.20
26254;DHT22;53339;51.378;0.094;2023-05-10T05:00:45;10.70;91.20
26254;DHT22;53339;51.378;0.094;2023-05-10T05:03:40;10.70;91.20
26254;DHT22;53339;51.378;0.094;2023-05-10T05:06:48;10.60;91.20
26254;DHT22;53339;51.378;0.094;2023-05-10T05:09:32;10.60;91.20
26254;DHT22;53339;51.378;0.094;2023-05-10T05:12:05;10.60;91.30
26254;DHT22;53339;51.378;0.094;2023-05-10T05:15:12;10.60;91.20
26254;DHT22;53339;51.378;0.094;2023-05-10T05:18:16;10.60;91.30
26254;DHT22;53339;51.378;0.094;2023-05-10T05:21:12;10.60;91.30
26254;DHT22;53339;51.378;0.094;2023-05-10T05:24:16;10.60;91.30
26254;DHT22;53339;51.378;0.094;2023-05-10T05:27:05;10.60;91.30
26254;DHT22;53339;51.378;0.094;2023-05-10T05:29:46;10.60;91.30
26254;DHT22;53339;51.378;0.094;2023-05-10T05:32:42;10.60;91.40
26254;DHT22;53339;51.378;0.094;2023-05-10T05:35:32;10.60;91.40
26254;DHT22;53339;51.378;0.094;2023-05-10T05:38:11;10.60;91.50
26254;DHT22;53339;51.378;0.094;2023-05-10T05:40:53;10.70;91.60
26254;DHT22;53339;51.378;0.094;2023-05-10T05:43:30;10.70;91.60
26254;DHT22;53339;51.378;0.094;2023-05-10T05:46:10;10.80;91.70
26254;DHT22;53339;51.378;0.094;2023-05-10T05:48:57;10.90;91.70
26254;DHT22;53339;51.378;0.094;2023-05-10T05:51:29;11.00;91.70
26254;DHT22;53339;51.378;0.094;2023-05-10T05:57:02;11.10;91.70
26254;DHT22;53339;51.378;0.094;2023-05-10T05:59:36;11.10;91.70
26254;DHT22;53339;51.378;0.094;2023-05-10T06:02:34;11.20;91.60
26254;DHT22;53339;51.378;0.094;2023-05-10T06:05:12;11.10;91.50
26254;DHT22;53339;51.378;0.094;2023-05-10T06:08:18;11.20;91.50
26254;DHT22;53339;51.378;0.094;2023-05-10T06:10:59;11.20;91.40
26254;DHT22;53339;51.378;0.094;2023-05-10T06:13:45;11.20;91.30
26254;DHT22;53339;51.378;0.094;2023-05-10T06:16:36;11.20;91.20
26254;DHT22;53339;51.378;0.094;2023-05-10T06:19:05;11.20;91.10
26254;DHT22;53339;51.378;0.094;2023-05-10T06:21:49;11.20;91.00
26254;DHT22;53339;51.378;0.094;2023-05-10T06:24:47;11.20;90.80
26254;DHT22;53339;51.378;0.094;2023-05-10T06:27:20;11.40;90.90
26254;DHT22;53339;51.378;0.094;2023-05-10T06:29:52;11.40;90.80
26254;DHT22;53339;51.378;0.094;2023-05-10T06:32:51;11.50;90.80
26254;DHT22;53339;51.378;0.094;2023-05-10T06:35:26;11.50;90.60
26254;DHT22;53339;51.378;0.094;2023-05-10T06:38:13;11.50;90.60
26254;DHT22;53339;51.378;0.094;2023-05-10T06:41:14;11.50;90.50
26254;DHT22;53339;51.378;0.094;2023-05-10T06:43:43;11.50;90.50
26254;DHT22;53339;51.378;0.094;2023-05-10T06:46:22;11.60;90.50
26254;DHT22;53339;51.378;0.094;2023-05-10T06:49:00;11.60;90.30
26254;DHT22;53339;51.378;0.094;2023-05-10T06:51:40;11.60;90.00
26254;DHT22;53339;51.378;0.094;2023-05-10T06:54:12;11.50;89.90
26254;DHT22;53339;51.378;0.094;2023-05-10T06:56:53;11.60;89.90
26254;DHT22;53339;51.378;0.094;2023-05-10T06:59:32;11.70;90.00
26254;DHT22;53339;51.378;0.094;2023-05-10T07:02:28;11.70;89.80
26254;DHT22;53339;51.378;0.094;2023-05-10T07:05:43;11.70;89.80
26254;DHT22;53339;51.378;0.094;2023-05-10T07:09:09;11.80;89.80
26254;DHT22;53339;51.378;0.094;2023-05-10T07:11:33;11.90;89.80
26254;DHT22;53339;51.378;0.094;2023-05-10T07:14:22;11.90;89.50
26254;DHT22;53339;51.378;0.094;2023-05-10T07:16:53;11.90;89.30
26254;DHT22;53339;51.378;0.094;2023-05-10T07:20:00;11.90;89.20
26254;DHT22;53339;51.378;0.094;2023-05-10T07:22:45;12.00;89.10
26254;DHT22;53339;51.378;0.094;2023-05-10T07:25:57;12.00;88.90
26254;DHT22;53339;51.378;0.094;2023-05-10T07:28:33;12.10;89.10
26254;DHT22;53339;51.378;0.094;2023-05-10T07:31:25;12.10;89.00
26254;DHT22;53339;51.378;0.094;2023-05-10T07:34:09;12.20;88.80
26254;DHT22;53339;51.378;0.094;2023-05-10T07:37:12;12.20;88.80
26254;DHT22;53339;51.378;0.094;2023-05-10T07:39:51;12.30;88.70
26254;DHT22;53339;51.378;0.094;2023-05-10T07:42:40;12.40;88.70
26254;DHT22;53339;51.378;0.094;2023-05-10T07:45:54;12.50;88.70
26254;DHT22;53339;51.378;0.094;2023-05-10T07:48:36;12.60;88.40
26254;DHT22;53339;51.378;0.094;2023-05-10T07:51:31;12.70;88.30
26254;DHT22;53339;51.378;0.094;2023-05-10T07:54:17;12.70;88.00
26254;DHT22;53339;51.378;0.094;2023-05-10T07:57:07;12.80;87.80
26254;DHT22;53339;51.378;0.094;2023-05-10T08:00:07;12.90;87.70
26254;DHT22;53339;51.378;0.094;2023-05-10T08:03:08;13.00;87.50
26254;DHT22;53339;51.378;0.094;2023-05-10T08:06:18;13.10;87.20
26254;DHT22;53339;51.378;0.094;2023-05-10T08:09:35;13.10;87.10
26254;DHT22;53339;51.378;0.094;2023-05-10T08:12:44;13.20;86.50
26254;DHT22;53339;51.378;0.094;2023-05-10T08:15:49;13.20;86.20
26254;DHT22;53339;51.378;0.094;2023-05-10T08:18:52;13.20;85.80
26254;DHT22;53339;51.378;0.094;2023-05-10T08:21:49;13.40;86.30
26254;DHT22;53339;51.378;0.094;2023-05-10T08:24:55;13.50;85.90
26254;DHT22;53339;51.378;0.094;2023-05-10T08:27:47;13.60;85.50
26254;DHT22;53339;51.378;0.094;2023-05-10T08:30:19;13.60;84.80
26254;DHT22;53339;51.378;0.094;2023-05-10T08:33:56;13.70;84.80
26254;DHT22;53339;51.378;0.094;2023-05-10T08:37:49;13.70;84.50
26254;DHT22;53339;51.378;0.094;2023-05-10T08:41:11;13.90;84.40
26254;DHT22;53339;51.378;0.094;2023-05-10T08:43:53;14.10;84.70
26254;DHT22;53339;51.378;0.094;2023-05-10T08:46:44;14.10;84.20
26254;DHT22;53339;51.378;0.094;2023-05-10T08:49:22;14.20;84.00
26254;DHT22;53339;51.378;0.094;2023-05-10T08:52:21;14.20;83.20
26254;DHT22;53339;51.378;0.094;2023-05-10T08:55:28;14.30;83.20
26254;DHT22;53339;51.378;0.094;2023-05-10T08:58:30;14.40;82.50
26254;DHT22;53339;51.378;0.094;2023-05-10T09:01:14;14.40;83.40
26254;DHT22;53339;51.378;0.094;2023-05-10T09:04:00;14.60;83.30
26254;DHT22;53339;51.378;0.094;2023-05-10T09:07:12;14.70;83.40
26254;DHT22;53339;51.378;0.094;2023-05-10T09:13:32;14.90;82.50
26254;DHT22;53339;51.378;0.094;2023-05-10T09:16:19;14.90;80.90
26254;DHT22;53339;51.378;0.094;2023-05-10T09:19:26;14.90;81.50
26254;DHT22;53339;51.378;0.094;2023-05-10T09:28:54;15.20;82.10
26254;DHT22;53339;51.378;0.094;2023-05-10T09:31:55;15.40;81.00
26254;DHT22;53339;51.378;0.094;2023-05-10T09:34:54;15.40;79.60
26254;DHT22;53339;51.378;0.094;2023-05-10T09:37:49;15.40;79.70
26254;DHT22;53339;51.378;0.094;2023-05-10T09:40:36;15.50;80.40
26254;DHT22;53339;51.378;0.094;2023-05-10T09:43:26;15.60;80.50
26254;DHT22;53339;51.378;0.094;2023-05-10T09:46:12;15.70;79.40
26254;DHT22;53339;51.378;0.094;2023-05-10T09:49:00;15.70;79.60
26254;DHT22;53339;51.378;0.094;2023-05-10T09:51:43;15.80;76.80
26254;DHT22;53339;51.378;0.094;2023-05-10T09:54:54;15.90;76.20
26254;DHT22;53339;51.378;0.094;2023-05-10T09:57:45;15.90;77.40
26254;DHT22;53339;51.378;0.094;2023-05-10T10:00:42;16.00;79.00
26254;DHT22;53339;51.378;0.094;2023-05-10T10:03:33;16.10;78.40
26254;DHT22;53339;51.378;0.094;2023-05-10T10:06:47;16.10;77.90
26254;DHT22;53339;51.378;0.094;2023-05-10T10:10:06;16.20;77.00
26254;DHT22;53339;51.378;0.094;2023-05-10T10:13:32;16.40;77.80
26254;DHT22;53339;51.378;0.094;2023-05-10T10:20:37;16.60;73.90
26254;DHT22;53339;51.378;0.094;2023-05-10T10:23:47;16.60;73.80
26254;DHT22;53339;51.378;0.094;2023-05-10T10:26:39;16.70;75.00
26254;DHT22;53339;51.378;0.094;2023-05-10T10:34:30;17.00;74.70
26254;DHT22;53339;51.378;0.094;2023-05-10T10:37:22;17.20;74.10
26254;DHT22;53339;51.378;0.094;2023-05-10T10:41:09;17.30;71.50
26254;DHT22;53339;51.378;0.094;2023-05-10T10:50:11;17.30;73.00
26254;DHT22;53339;51.378;0.094;2023-05-10T10:52:48;17.60;70.40
26254;DHT22;53339;51.378;0.094;2023-05-10T10:56:18;17.70;68.80
26254;DHT22;53339;51.378;0.094;2023-05-10T10:59:27;17.70;69.20
26254;DHT22;53339;51.378;0.094;2023-05-10T11:02:43;17.80;69.60
26254;DHT22;53339;51.378;0.094;2023-05-10T11:05:34;17.80;69.00
26254;DHT22;53339;51.378;0.094;2023-05-10T11:08:50;17.90;68.60
26254;DHT22;53339;51.378;0.094;2023-05-10T11:12:07;17.90;68.40
26254;DHT22;53339;51.378;0.094;2023-05-10T11:15:50;18.00;64.60
26254;DHT22;53339;51.378;0.094;2023-05-10T11:19:12;17.90;67.70
26254;DHT22;53339;51.378;0.094;2023-05-10T11:25:09;18.20;67.40
26254;DHT22;53339;51.378;0.094;2023-05-10T11:28:42;18.20;66.90
26254;DHT22;53339;51.378;0.094;2023-05-10T11:34:47;18.20;68.20
26254;DHT22;53339;51.378;0.094;2023-05-10T11:37:28;18.20;64.70
26254;DHT22;53339;51.378;0.094;2023-05-10T11:40:18;18.30;66.10
26254;DHT22;53339;51.378;0.094;2023-05-10T11:43:10;18.60;67.00
26254;DHT22;53339;51.378;0.094;2023-05-10T11:45:53;18.90;67.40
26254;DHT22;53339;51.378;0.094;2023-05-10T11:48:57;19.10;62.50
26254;DHT22;53339;51.378;0.094;2023-05-10T11:52:03;19.20;64.30
26254;DHT22;53339;51.378;0.094;2023-05-10T11:54:58;19.50;66.30
26254;DHT22;53339;51.378;0.094;2023-05-10T11:58:22;19.70;64.30
26254;DHT22;53339;51.378;0.094;2023-05-10T12:01:25;19.90;55.70
26254;DHT22;53339;51.378;0.094;2023-05-10T12:04:17;19.60;58.20
26254;DHT22;53339;51.378;0.094;2023-05-10T12:07:22;19.50;59.10
26254;DHT22;53339;51.378;0.094;2023-05-10T12:10:08;19.50;59.10
26254;DHT22;53339;51.378;0.094;2023-05-10T12:13:10;19.70;58.60
26254;DHT22;53339;51.378;0.094;2023-05-10T12:15:44;20.30;59.40
26254;DHT22;53339;51.378;0.094;2023-05-10T12:18:33;20.60;54.80
26254;DHT22;53339;51.378;0.094;2023-05-10T12:21:20;20.50;50.70
26254;DHT22;53339;51.378;0.094;2023-05-10T12:24:18;20.20;51.20
26254;DHT22;53339;51.378;0.094;2023-05-10T12:27:08;20.00;51.80
26254;DHT22;53339;51.378;0.094;2023-05-10T12:29:59;19.80;52.20
26254;DHT22;53339;51.378;0.094;2023-05-10T12:33:24;19.70;51.20
26254;DHT22;53339;51.378;0.094;2023-05-10T12:35:59;19.50;53.60
26254;DHT22;53339;51.378;0.094;2023-05-10T12:38:47;19.20;52.80
26254;DHT22;53339;51.378;0.094;2023-05-10T12:41:41;19.20;53.20
26254;DHT22;53339;51.378;0.094;2023-05-10T12:44:24;19.10;52.60
26254;DHT22;53339;51.378;0.094;2023-05-10T12:47:05;19.00;54.30
26254;DHT22;53339;51.378;0.094;2023-05-10T12:49:39;18.90;54.50
26254;DHT22;53339;51.378;0.094;2023-05-10T12:52:27;19.20;54.50
26254;DHT22;53339;51.378;0.094;2023-05-10T12:55:21;19.80;52.90
26254;DHT22;53339;51.378;0.094;2023-05-10T12:57:59;20.20;52.20
26254;DHT22;53339;51.378;0.094;2023-05-10T13:00:48;20.20;51.40
26254;DHT22;53339;51.378;0.094;2023-05-10T13:03:38;20.00;53.20
26254;DHT22;53339;51.378;0.094;2023-05-10T13:06:53;19.70;53.60
26254;DHT22;53339;51.378;0.094;2023-05-10T13:09:39;19.30;53.60
26254;DHT22;53339;51.378;0.094;2023-05-10T13:12:27;18.90;53.60
26254;DHT22;53339;51.378;0.094;2023-05-10T13:15:18;18.70;55.90
26254;DHT22;53339;51.378;0.094;2023-05-10T13:18:00;18.70;55.30
26254;DHT22;53339;51.378;0.094;2023-05-10T13:20:54;18.70;55.00
26254;DHT22;53339;51.378;0.094;2023-05-10T13:23:42;18.70;55.60
26254;DHT22;53339;51.378;0.094;2023-05-10T13:26:22;18.90;54.10
26254;DHT22;53339;51.378;0.094;2023-05-10T13:29:11;18.90;54.20
26254;DHT22;53339;51.378;0.094;2023-05-10T13:31:55;19.10;54.40
26254;DHT22;53339;51.378;0.094;2023-05-10T13:34:41;19.60;54.30
26254;DHT22;53339;51.378;0.094;2023-05-10T13:37:26;20.60;53.90
26254;DHT22;53339;51.378;0.094;2023-05-10T13:40:02;21.50;52.00
26254;DHT22;53339;51.378;0.094;2023-05-10T13:42:49;21.80;49.30
26254;DHT22;53339;51.378;0.094;2023-05-10T13:45:58;21.50;49.10
26254;DHT22;53339;51.378;0.094;2023-05-10T13:48:48;21.00;51.20
26254;DHT22;53339;51.378;0.094;2023-05-10T13:51:45;20.70;51.50
26254;DHT22;53339;51.378;0.094;2023-05-10T13:54:27;20.70;50.50
26254;DHT22;53339;51.378;0.094;2023-05-10T13:57:11;20.60;52.60
26254;DHT22;53339;51.378;0.094;2023-05-10T14:00:11;20.40;52.60
26254;DHT22;53339;51.378;0.094;2023-05-10T14:03:00;20.10;51.50
26254;DHT22;53339;51.378;0.094;2023-05-10T14:06:06;19.40;53.90
26254;DHT22;53339;51.378;0.094;2023-05-10T14:09:13;18.70;57.00
26254;DHT22;53339;51.378;0.094;2023-05-10T14:12:10;18.20;59.30
26254;DHT22;53339;51.378;0.094;2023-05-10T14:15:06;17.70;61.50
26254;DHT22;53339;51.378;0.094;2023-05-10T14:17:46;17.00;64.20
26254;DHT22;53339;51.378;0.094;2023-05-10T14:20:27;16.60;66.90
26254;DHT22;53339;51.378;0.094;2023-05-10T14:23:12;16.10;68.80
26254;DHT22;53339;51.378;0.094;2023-05-10T14:25:46;15.80;70.80
26254;DHT22;53339;51.378;0.094;2023-05-10T14:28:33;15.50;72.10
26254;DHT22;53339;51.378;0.094;2023-05-10T14:31:26;15.40;73.50
26254;DHT22;53339;51.378;0.094;2023-05-10T14:34:05;15.40;74.80
26254;DHT22;53339;51.378;0.094;2023-05-10T14:36:45;15.60;76.00
26254;DHT22;53339;51.378;0.094;2023-05-10T14:40:00;16.00;76.00
26254;DHT22;53339;51.378;0.094;2023-05-10T14:43:01;16.60;75.10
26254;DHT22;53339;51.378;0.094;2023-05-10T14:46:07;17.30;75.50
26254;DHT22;53339;51.378;0.094;2023-05-10T14:49:04;18.40;72.40
26254;DHT22;53339;51.378;0.094;2023-05-10T14:51:35;20.10;69.60
26254;DHT22;53339;51.378;0.094;2023-05-10T14:54:41;21.40;62.50
26254;DHT22;53339;51.378;0.094;2023-05-10T14:57:27;22.70;51.70
26254;DHT22;53339;51.378;0.094;2023-05-10T15:00:12;23.40;50.50
26254;DHT22;53339;51.378;0.094;2023-05-10T15:03:05;24.10;52.70
26254;DHT22;53339;51.378;0.094;2023-05-10T15:06:04;25.00;47.90
26254;DHT22;53339;51.378;0.094;2023-05-10T15:08:47;25.40;46.70
26254;DHT22;53339;51.378;0.094;2023-05-10T15:11:22;25.70;44.00
26254;DHT22;53339;51.378;0.094;2023-05-10T15:14:14;25.40;43.20
26254;DHT22;53339;51.378;0.094;2023-05-10T15:17:23;25.20;40.80
26254;DHT22;53339;51.378;0.094;2023-05-10T15:20:22;25.30;43.00
26254;DHT22;53339;51.378;0.094;2023-05-10T15:23:01;25.10;39.30
26254;DHT22;53339;51.378;0.094;2023-05-10T15:25:45;24.90;41.80
26254;DHT22;53339;51.378;0.094;2023-05-10T15:31:22;25.40;39.40
26254;DHT22;53339;51.378;0.094;2023-05-10T15:34:04;24.90;39.80
26254;DHT22;53339;51.378;0.094;2023-05-10T15:36:58;23.80;42.90
26254;DHT22;53339;51.378;0.094;2023-05-10T15:40:12;22.70;45.30
26254;DHT22;53339;51.378;0.094;2023-05-10T15:43:29;21.60;45.70
26254;DHT22;53339;51.378;0.094;2023-05-10T15:46:28;21.10;51.30
26254;DHT22;53339;51.378;0.094;2023-05-10T15:49:16;21.50;53.00
26254;DHT22;53339;51.378;0.094;2023-05-10T15:52:11;22.50;54.00
26254;DHT22;53339;51.378;0.094;2023-05-10T15:54:41;23.40;49.70
26254;DHT22;53339;51.378;0.094;2023-05-10T15:57:32;24.00;49.20
26254;DHT22;53339;51.378;0.094;2023-05-10T16:00:17;24.10;49.50
26254;DHT22;53339;51.378;0.094;2023-05-10T16:02:53;23.70;49.60
26254;DHT22;53339;51.378;0.094;2023-05-10T16:05:25;23.00;49.40
26254;DHT22;53339;51.378;0.094;2023-05-10T16:08:17;22.20;49.50
26254;DHT22;53339;51.378;0.094;2023-05-10T16:11:15;21.10;51.30
26254;DHT22;53339;51.378;0.094;2023-05-10T16:14:16;20.10;54.40
26254;DHT22;53339;51.378;0.094;2023-05-10T16:16:54;19.40;56.80
26254;DHT22;53339;51.378;0.094;2023-05-10T16:19:30;18.80;58.50
26254;DHT22;53339;51.378;0.094;2023-05-10T16:22:41;18.40;60.00
26254;DHT22;53339;51.378;0.094;2023-05-10T16:25:39;18.10;61.70
26254;DHT22;53339;51.378;0.094;2023-05-10T16:28:36;17.80;61.60
26254;DHT22;53339;51.378;0.094;2023-05-10T16:31:34;17.50;61.90
26254;DHT22;53339;51.378;0.094;2023-05-10T16:34:16;17.20;64.20
26254;DHT22;53339;51.378;0.094;2023-05-10T16:37:33;16.10;68.00
26254;DHT22;53339;51.378;0.094;2023-05-10T16:43:42;13.70;77.50
26254;DHT22;53339;51.378;0.094;2023-05-10T16:47:12;13.20;79.60
26254;DHT22;53339;51.378;0.094;2023-05-10T16:50:22;13.10;81.10
26254;DHT22;53339;51.378;0.094;2023-05-10T16:56:31;13.10;82.80
26254;DHT22;53339;51.378;0.094;2023-05-10T16:59:30;13.20;83.60
26254;DHT22;53339;51.378;0.094;2023-05-10T17:02:14;13.30;83.90
26254;DHT22;53339;51.378;0.094;2023-05-10T17:04:43;13.30;84.30
26254;DHT22;53339;51.378;0.094;2023-05-10T17:07:27;13.40;84.50
26254;DHT22;53339;51.378;0.094;2023-05-10T17:11:03;13.50;84.80
26254;DHT22;53339;51.378;0.094;2023-05-10T17:13:43;13.60;85.10
26254;DHT22;53339;51.378;0.094;2023-05-10T17:17:23;13.70;85.20
26254;DHT22;53339;51.378;0.094;2023-05-10T17:20:11;13.70;85.50
26254;DHT22;53339;51.378;0.094;2023-05-10T17:23:37;13.70;85.60
26254;DHT22;53339;51.378;0.094;2023-05-10T17:26:17;13.70;85.90
26254;DHT22;53339;51.378;0.094;2023-05-10T17:29:24;13.70;86.00
26254;DHT22;53339;51.378;0.094;2023-05-10T17:32:43;13.70;86.20
26254;DHT22;53339;51.378;0.094;2023-05-10T17:35:35;13.60;86.30
26254;DHT22;53339;51.378;0.094;2023-05-10T17:38:10;13.60;86.40
26254;DHT22;53339;51.378;0.094;2023-05-10T17:42:02;13.50;86.40
26254;DHT22;53339;51.378;0.094;2023-05-10T17:45:01;13.40;86.50
26254;DHT22;53339;51.378;0.094;2023-05-10T17:47:40;13.40;86.70
26254;DHT22;53339;51.378;0.094;2023-05-10T17:50:44;13.30;86.80
26254;DHT22;53339;51.378;0.094;2023-05-10T17:53:26;13.30;86.90
26254;DHT22;53339;51.378;0.094;2023-05-10T17:56:15;13.30;87.10
26254;DHT22;53339;51.378;0.094;2023-05-10T17:58:54;13.30;87.30
26254;DHT22;53339;51.378;0.094;2023-05-10T18:01:28;13.30;87.10
26254;DHT22;53339;51.378;0.094;2023-05-10T18:04:17;13.20;87.10
26254;DHT22;53339;51.378;0.094;2023-05-10T18:07:21;13.20;87.10
26254;DHT22;53339;51.378;0.094;2023-05-10T18:10:14;13.10;87.20
26254;DHT22;53339;51.378;0.094;2023-05-10T18:13:07;13.10;87.30
26254;DHT22;53339;51.378;0.094;2023-05-10T18:16:03;13.10;87.40
26254;DHT22;53339;51.378;0.094;2023-05-10T18:18:34;13.00;87.40
26254;DHT22;53339;51.378;0.094;2023-05-10T18:21:33;13.00;87.50
26254;DHT22;53339;51.378;0.094;2023-05-10T18:24:42;13.10;87.70
26254;DHT22;53339;51.378;0.094;2023-05-10T18:27:41;13.20;87.90
26254;DHT22;53339;51.378;0.094;2023-05-10T18:34:07;13.30;88.10
26254;DHT22;53339;51.378;0.094;2023-05-10T18:36:59;13.30;88.20
26254;DHT22;53339;51.378;0.094;2023-05-10T18:39:51;13.40;88.40
26254;DHT22;53339;51.378;0.094;2023-05-10T18:42:21;13.50;88.40
26254;DHT22;53339;51.378;0.094;2023-05-10T18:45:17;13.60;88.50
26254;DHT22;53339;51.378;0.094;2023-05-10T18:48:07;13.70;88.70
26254;DHT22;53339;51.378;0.094;2023-05-10T18:50:48;13.70;88.70
26254;DHT22;53339;51.378;0.094;2023-05-10T18:53:33;13.70;88.70
26254;DHT22;53339;51.378;0.094;2023-05-10T18:56:06;13.70;88.50
26254;DHT22;53339;51.378;0.094;2023-05-10T18:59:23;13.70;88.50
26254;DHT22;53339;51.378;0.094;2023-05-10T19:02:11;13.70;88.60
26254;DHT22;53339;51.378;0.094;2023-05-10T19:04:48;13.70;88.60
26254;DHT22;53339;51.378;0.094;2023-05-10T19:07:31;13.70;88.60
26254;DHT22;53339;51.378;0.094;2023-05-10T19:10:16;13.70;88.80
26254;DHT22;53339;51.378;0.094;2023-05-10T19:12:56;13.60;88.80
26254;DHT22;53339;51.378;0.094;2023-05-10T19:15:32;13.60;88.80